createdAt,value
2019-06-20T00:01:44.845Z,1.60
2019-06-20T00:04:13.599Z,1.43
2019-06-20T00:06:42.386Z,1.40
2019-06-20T00:09:11.246Z,1.50
2019-06-20T00:11:39.986Z,1.40
2019-06-20T00:14:08.755Z,1.40
2019-06-20T00:16:37.533Z,1.57
2019-06-20T00:19:06.361Z,1.40
2019-06-20T00:21:35.112Z,1.40
2019-06-20T00:24:04.009Z,1.40
2019-06-20T00:26:32.793Z,1.40
2019-06-20T00:29:01.545Z,1.40
2019-06-20T00:31:30.302Z,1.40
2019-06-20T00:33:59.056Z,1.30
2019-06-20T00:36:27.799Z,1.40
2019-06-20T00:38:56.584Z,1.30
2019-06-20T00:41:25.331Z,1.40
2019-06-20T00:43:54.155Z,1.40
2019-06-20T00:46:22.898Z,1.40
2019-06-20T00:48:51.658Z,1.50
2019-06-20T00:51:20.435Z,1.40
2019-06-20T00:53:49.205Z,1.30
2019-06-20T00:56:17.952Z,1.53
2019-06-20T00:58:46.711Z,1.53
2019-06-20T01:01:15.542Z,1.33
2019-06-20T01:03:44.308Z,1.47
2019-06-20T01:06:13.058Z,1.40
2019-06-20T01:08:41.986Z,1.40
2019-06-20T01:11:10.769Z,1.40
2019-06-20T01:13:39.529Z,1.40
2019-06-20T01:16:08.367Z,1.20
2019-06-20T01:18:37.129Z,1.33
2019-06-20T01:21:05.883Z,1.50
2019-06-20T01:23:34.645Z,1.50
2019-06-20T01:26:03.391Z,1.33
2019-06-20T01:28:32.171Z,1.30
2019-06-20T01:31:01.074Z,1.40
2019-06-20T01:33:29.978Z,1.40
2019-06-20T01:35:58.865Z,1.30
2019-06-20T01:38:27.627Z,1.40
2019-06-20T01:40:56.433Z,1.17
2019-06-20T01:43:25.203Z,1.40
2019-06-20T01:45:53.942Z,1.33
2019-06-20T01:48:22.702Z,1.30
2019-06-20T01:50:51.453Z,1.57
2019-06-20T01:53:20.245Z,1.30
2019-06-20T01:55:49.019Z,1.37
2019-06-20T01:58:17.773Z,1.60
2019-06-20T02:00:47.934Z,1.53
2019-06-20T02:03:16.681Z,1.30
2019-06-20T02:05:45.488Z,1.30
2019-06-20T02:08:14.265Z,1.27
2019-06-20T02:10:43.057Z,1.20
2019-06-20T02:13:11.894Z,1.50
2019-06-20T02:15:40.675Z,1.20
2019-06-20T02:18:09.457Z,1.10
2019-06-20T02:20:40.555Z,1.27
2019-06-20T02:23:09.418Z,1.10
2019-06-20T02:25:38.181Z,1.30
2019-06-20T02:28:06.926Z,1.23
2019-06-20T02:30:35.663Z,1.40
2019-06-20T02:33:04.429Z,1.40
2019-06-20T02:35:33.185Z,1.20
2019-06-20T02:38:02.029Z,1.30
2019-06-20T02:40:30.838Z,1.23
2019-06-20T02:42:59.603Z,1.30
2019-06-20T02:45:28.358Z,1.37
2019-06-20T02:47:57.123Z,1.30
2019-06-20T02:50:26.842Z,1.47
2019-06-20T02:52:55.607Z,1.23
2019-06-20T02:55:24.407Z,1.50
2019-06-20T02:57:53.235Z,1.30
2019-06-20T03:00:33.430Z,1.30
2019-06-20T03:03:02.284Z,1.23
2019-06-20T03:05:31.045Z,1.20
2019-06-20T03:07:59.795Z,1.40
2019-06-20T03:10:28.598Z,1.53
2019-06-20T03:12:57.431Z,1.20
2019-06-20T03:15:26.253Z,1.30
2019-06-20T03:17:55.018Z,1.27
2019-06-20T03:20:23.793Z,1.40
2019-06-20T03:22:52.566Z,1.30
2019-06-20T03:25:21.822Z,1.40
2019-06-20T03:27:50.571Z,1.20
2019-06-20T03:30:19.336Z,1.30
2019-06-20T03:32:48.078Z,1.50
2019-06-20T03:35:16.835Z,1.20
2019-06-20T03:37:45.597Z,1.30
2019-06-20T03:40:14.330Z,1.30
2019-06-20T03:42:43.102Z,1.20
2019-06-20T03:45:11.859Z,1.30
2019-06-20T03:47:40.618Z,1.20
2019-06-20T03:50:09.523Z,1.30
2019-06-20T03:52:38.413Z,1.40
2019-06-20T03:55:07.553Z,1.17
2019-06-20T03:57:36.345Z,1.37
2019-06-20T04:00:05.719Z,1.40
2019-06-20T04:02:34.491Z,1.30
2019-06-20T04:05:03.454Z,1.30
2019-06-20T04:07:32.424Z,1.30
2019-06-20T04:10:01.254Z,1.40
2019-06-20T04:12:30.042Z,1.30
2019-06-20T04:14:58.841Z,1.20
2019-06-20T04:17:27.704Z,1.30
2019-06-20T04:19:56.567Z,1.40
2019-06-20T04:22:25.393Z,1.27
2019-06-20T04:24:54.216Z,1.30
2019-06-20T04:27:23.056Z,1.20
2019-06-20T04:29:51.832Z,1.37
2019-06-20T04:32:20.612Z,1.10
2019-06-20T04:34:49.381Z,1.20
2019-06-20T04:37:18.214Z,1.10
2019-06-20T04:39:47.086Z,1.40
2019-06-20T04:42:18.681Z,1.40
2019-06-20T04:44:46.447Z,1.40
2019-06-20T04:47:15.766Z,1.27
2019-06-20T04:49:44.699Z,1.20
2019-06-20T04:52:13.634Z,1.60
2019-06-20T04:54:42.555Z,1.53
2019-06-20T04:57:11.626Z,2.40
2019-06-20T04:59:40.478Z,2.10
2019-06-20T05:02:09.337Z,2.00
2019-06-20T05:04:38.120Z,2.00
2019-06-20T05:07:13.892Z,2.70
2019-06-20T05:09:42.680Z,2.07
2019-06-20T05:12:11.584Z,2.23
2019-06-20T05:14:40.408Z,2.20
2019-06-20T05:17:09.172Z,2.50
2019-06-20T05:19:37.932Z,2.70
2019-06-20T05:22:06.800Z,2.30
2019-06-20T05:24:35.602Z,2.67
2019-06-20T05:27:04.540Z,2.30
2019-06-20T05:29:33.380Z,2.10
2019-06-20T05:32:02.268Z,2.50
2019-06-20T05:34:31.096Z,2.20
2019-06-20T05:36:59.952Z,2.60
2019-06-20T05:39:28.830Z,2.10
2019-06-20T05:41:57.720Z,2.30
2019-06-20T05:44:26.522Z,2.27
2019-06-20T05:47:11.507Z,2.37
2019-06-20T05:49:26.030Z,1.93
2019-06-20T05:51:54.826Z,2.30
2019-06-20T05:54:23.602Z,2.03
2019-06-20T05:56:52.530Z,2.30
2019-06-20T05:59:21.331Z,2.10
2019-06-20T06:01:50.976Z,1.90
2019-06-20T06:04:19.888Z,1.77
2019-06-20T06:06:48.658Z,2.07
2019-06-20T06:09:17.421Z,1.90
2019-06-20T06:11:46.172Z,2.00
2019-06-20T06:14:14.981Z,2.03
2019-06-20T06:16:44.307Z,1.87
2019-06-20T06:19:13.293Z,1.97
2019-06-20T06:21:42.069Z,2.20
2019-06-20T06:24:10.918Z,2.37
2019-06-20T06:26:39.882Z,1.97
2019-06-20T06:29:08.732Z,2.27
2019-06-20T06:31:37.479Z,2.07
2019-06-20T06:34:06.374Z,1.93
2019-06-20T06:36:35.168Z,2.07
2019-06-20T06:39:05.472Z,1.97
2019-06-20T06:41:34.334Z,1.80
2019-06-20T06:44:03.090Z,1.63
2019-06-20T06:46:43.666Z,1.90
2019-06-20T06:49:02.436Z,1.90
2019-06-20T06:51:31.250Z,1.60
2019-06-20T06:54:00.022Z,1.70
2019-06-20T06:56:28.813Z,1.80
2019-06-20T06:58:57.668Z,1.80
2019-06-20T07:01:26.545Z,1.80
2019-06-20T07:03:55.392Z,1.83
2019-06-20T07:06:24.163Z,1.93
2019-06-20T07:08:52.936Z,1.73
2019-06-20T07:11:21.722Z,1.77
2019-06-20T07:13:50.574Z,1.70
2019-06-20T07:16:19.430Z,1.70
2019-06-20T07:18:48.185Z,1.80
2019-06-20T07:21:17.049Z,1.70
2019-06-20T07:23:45.815Z,1.90
2019-06-20T07:26:14.639Z,1.80
2019-06-20T07:28:43.492Z,1.90
2019-06-20T07:31:12.327Z,1.60
2019-06-20T07:33:41.141Z,1.77
2019-06-20T07:36:10.001Z,1.60
2019-06-20T07:38:38.873Z,1.70
2019-06-20T07:41:07.752Z,1.80
2019-06-20T07:43:36.615Z,1.67
2019-06-20T07:46:05.547Z,1.70
2019-06-20T07:48:34.313Z,1.40
2019-06-20T07:51:03.136Z,1.60
2019-06-20T07:53:31.986Z,1.50
2019-06-20T07:56:00.763Z,1.57
2019-06-20T07:58:29.554Z,1.47
2019-06-20T08:00:58.433Z,1.70
2019-06-20T08:03:27.433Z,1.70
2019-06-20T08:05:56.277Z,1.30
2019-06-20T08:08:25.062Z,1.57
2019-06-20T08:10:53.844Z,1.40
2019-06-20T08:13:22.656Z,2.00
2019-06-20T08:15:51.502Z,1.57
2019-06-20T08:18:20.383Z,1.20
2019-06-20T08:20:49.183Z,1.50
2019-06-20T08:23:18.083Z,1.40
2019-06-20T08:25:47.015Z,1.40
2019-06-20T08:28:15.827Z,1.50
2019-06-20T08:30:44.601Z,1.30
2019-06-20T08:33:13.674Z,1.30
2019-06-20T08:35:42.471Z,1.40
2019-06-20T08:38:11.252Z,1.50
2019-06-20T08:40:43.113Z,1.40
2019-06-20T08:43:11.964Z,1.40
2019-06-20T08:45:42.345Z,1.60
2019-06-20T08:48:11.106Z,1.67
2019-06-20T08:50:39.941Z,1.30
2019-06-20T08:53:08.727Z,1.47
2019-06-20T08:55:37.542Z,1.30
2019-06-20T08:58:06.413Z,1.47
2019-06-20T09:00:37.135Z,1.10
2019-06-20T09:03:06.387Z,1.60
2019-06-20T09:05:35.189Z,1.47
2019-06-20T09:08:04.881Z,1.80
2019-06-20T09:10:37.357Z,1.40
2019-06-20T09:13:07.336Z,1.30
2019-06-20T09:15:36.179Z,1.47
2019-06-20T09:18:05.065Z,1.20
2019-06-20T09:20:33.833Z,1.17
2019-06-20T09:23:03.333Z,1.20
2019-06-20T09:25:32.274Z,1.30
2019-06-20T09:28:02.497Z,1.27
2019-06-20T09:30:31.638Z,1.30
2019-06-20T09:33:00.416Z,1.57
2019-06-20T09:35:29.371Z,1.30
2019-06-20T09:37:59.233Z,1.27
2019-06-20T09:40:28.284Z,1.20
2019-06-20T09:42:57.161Z,1.50
2019-06-20T09:45:26.762Z,1.20
2019-06-20T09:47:56.058Z,1.30
2019-06-20T09:50:25.345Z,1.43
2019-06-20T09:52:54.897Z,1.30
2019-06-20T09:55:24.833Z,1.30
2019-06-20T09:57:53.826Z,1.33
2019-06-20T10:00:23.354Z,1.30
2019-06-20T10:02:54.095Z,1.20
2019-06-20T10:05:22.973Z,1.40
2019-06-20T10:07:52.276Z,1.20
2019-06-20T10:10:22.842Z,1.20
2019-06-20T10:12:51.837Z,1.27
2019-06-20T10:15:24.723Z,1.23
2019-06-20T10:17:54.492Z,1.23
2019-06-20T10:20:23.532Z,1.57
2019-06-20T10:22:53.080Z,1.60
2019-06-20T10:25:22.130Z,1.87
2019-06-20T10:27:51.439Z,2.30
2019-06-20T10:30:20.832Z,2.27
2019-06-20T10:32:51.005Z,2.00
2019-06-20T10:35:20.979Z,1.93
2019-06-20T10:37:50.391Z,1.60
2019-06-20T10:40:19.616Z,1.90
2019-06-20T10:42:48.477Z,2.07
2019-06-20T10:45:17.857Z,1.57
2019-06-20T10:47:47.266Z,1.50
2019-06-20T10:50:18.994Z,1.50
2019-06-20T10:52:48.154Z,1.33
2019-06-20T10:55:17.652Z,1.60
2019-06-20T10:57:46.807Z,1.40
2019-06-20T11:00:29.769Z,1.37
2019-06-20T11:02:47.073Z,1.63
2019-06-20T11:05:17.651Z,1.90
2019-06-20T11:07:47.609Z,1.10
2019-06-20T11:10:17.855Z,1.40
2019-06-20T11:12:52.319Z,1.40
2019-06-20T11:15:17.356Z,1.10
2019-06-20T11:17:46.379Z,1.40
2019-06-20T11:20:15.655Z,1.13
2019-06-20T11:22:45.373Z,1.20
2019-06-20T11:25:14.275Z,1.40
2019-06-20T11:27:43.288Z,1.23
2019-06-20T11:30:12.472Z,1.20
2019-06-20T11:32:41.564Z,1.43
2019-06-20T11:35:10.471Z,1.30
2019-06-20T11:37:39.652Z,1.20
2019-06-20T11:40:08.628Z,1.37
2019-06-20T11:42:37.809Z,1.40
2019-06-20T11:45:06.847Z,1.30
2019-06-20T11:47:36.616Z,1.73
2019-06-20T11:50:05.840Z,1.30
2019-06-20T11:52:40.055Z,1.60
2019-06-20T11:55:05.873Z,1.20
2019-06-20T11:57:34.630Z,1.27
2019-06-20T12:00:03.519Z,1.40
2019-06-20T12:02:32.562Z,1.30
2019-06-20T12:05:01.460Z,1.50
2019-06-20T12:07:30.344Z,1.30
2019-06-20T12:09:59.263Z,1.70
2019-06-20T12:12:28.163Z,1.50
2019-06-20T12:14:57.119Z,1.60
2019-06-20T12:17:26.001Z,1.30
2019-06-20T12:19:54.812Z,1.40
2019-06-20T12:22:23.583Z,1.20
2019-06-20T12:24:52.414Z,1.53
2019-06-20T12:27:21.844Z,1.57
2019-06-20T12:29:50.694Z,1.93
2019-06-20T12:32:21.673Z,1.50
2019-06-20T12:34:50.776Z,1.70
2019-06-20T12:37:19.595Z,1.20
2019-06-20T12:39:48.660Z,1.20
2019-06-20T12:42:17.709Z,1.50
2019-06-20T12:44:46.546Z,1.60
2019-06-20T12:47:15.357Z,1.27
2019-06-20T12:49:44.264Z,1.47
2019-06-20T12:52:13.130Z,1.30
2019-06-20T12:54:43.247Z,1.27
2019-06-20T12:57:12.265Z,1.50
2019-06-20T12:59:42.450Z,1.30
2019-06-20T13:02:11.516Z,1.10
2019-06-20T13:04:41.590Z,1.40
2019-06-20T13:07:10.568Z,1.40
2019-06-20T13:09:41.097Z,1.40
2019-06-20T13:12:10.208Z,1.13
2019-06-20T13:14:39.679Z,1.40
2019-06-20T13:17:09.746Z,1.50
2019-06-20T13:19:39.122Z,1.20
2019-06-20T13:22:09.285Z,1.10
2019-06-20T13:24:39.352Z,1.50
2019-06-20T13:27:08.774Z,1.03
2019-06-20T13:29:39.066Z,1.10
2019-06-20T13:32:08.001Z,1.20
2019-06-20T13:34:38.003Z,1.10
2019-06-20T13:37:07.545Z,1.10
2019-06-20T13:39:36.326Z,1.30
2019-06-20T13:42:05.240Z,1.50
2019-06-20T13:44:34.108Z,1.20
2019-06-20T13:47:03.098Z,1.50
2019-06-20T13:49:31.968Z,1.17
2019-06-20T13:52:00.861Z,1.17
2019-06-20T13:54:29.974Z,1.33
2019-06-20T13:56:58.828Z,1.10
2019-06-20T13:59:27.723Z,1.10
2019-06-20T14:02:06.176Z,1.00
2019-06-20T14:04:27.288Z,1.00
2019-06-20T14:06:56.197Z,1.40
2019-06-20T14:09:24.993Z,1.20
2019-06-20T14:11:54.164Z,1.20
2019-06-20T14:14:23.290Z,1.10
2019-06-20T14:16:52.217Z,1.30
2019-06-20T14:19:21.088Z,1.03
2019-06-20T14:21:50.653Z,1.40
2019-06-20T14:24:19.660Z,1.10
2019-06-20T14:26:48.471Z,1.13
2019-06-20T14:29:17.215Z,1.20
2019-06-20T14:31:47.153Z,1.13
2019-06-20T14:34:16.130Z,1.10
2019-06-20T14:36:46.674Z,1.43
2019-06-20T14:39:15.480Z,0.97
2019-06-20T14:41:44.792Z,1.00
2019-06-20T14:44:13.829Z,1.10
2019-06-20T14:46:42.725Z,1.10
2019-06-20T14:49:11.574Z,1.07
2019-06-20T14:51:40.445Z,0.93
2019-06-20T14:54:09.220Z,1.10
2019-06-20T14:56:38.020Z,1.20
2019-06-20T14:59:06.852Z,1.00
2019-06-20T15:01:35.718Z,1.10
2019-06-20T15:04:04.634Z,1.10
2019-06-20T15:06:33.402Z,1.00
2019-06-20T15:09:05.962Z,1.00
2019-06-20T15:11:32.874Z,1.10
2019-06-20T15:14:01.751Z,1.10
2019-06-20T15:16:30.620Z,1.13
2019-06-20T15:18:59.493Z,1.40
2019-06-20T15:21:28.307Z,1.00
2019-06-20T15:23:57.251Z,1.10
2019-06-20T15:26:26.032Z,1.00
2019-06-20T15:28:55.113Z,1.07
2019-06-20T15:31:24.407Z,1.20
2019-06-20T15:33:53.784Z,1.10
2019-06-20T15:36:23.868Z,0.90
2019-06-20T15:38:53.011Z,1.00
2019-06-20T15:41:22.075Z,0.97
2019-06-20T15:43:51.744Z,1.03
2019-06-20T15:46:21.406Z,1.17
2019-06-20T15:48:50.310Z,1.00
2019-06-20T15:51:19.258Z,0.90
2019-06-20T15:53:48.205Z,0.80
2019-06-20T15:56:17.146Z,0.90
2019-06-20T15:58:46.102Z,0.80
2019-06-20T16:01:14.926Z,0.97
2019-06-20T16:03:43.699Z,0.90
2019-06-20T16:06:12.593Z,0.93
2019-06-20T16:08:41.413Z,1.00
2019-06-20T16:11:10.271Z,0.97
2019-06-20T16:13:39.082Z,0.90
2019-06-20T16:16:07.858Z,0.97
2019-06-20T16:18:36.642Z,1.10
2019-06-20T16:21:05.524Z,1.00
2019-06-20T16:23:34.588Z,1.10
2019-06-20T16:26:03.476Z,0.90
2019-06-20T16:28:32.229Z,0.90
2019-06-20T16:31:10.185Z,1.00
2019-06-20T16:33:31.506Z,1.17
2019-06-20T16:36:00.274Z,1.17
2019-06-20T16:38:29.016Z,1.10
2019-06-20T16:40:57.772Z,1.00
2019-06-20T16:43:26.629Z,1.27
2019-06-20T16:45:55.364Z,1.10
2019-06-20T16:48:24.256Z,1.30
2019-06-20T16:50:53.005Z,1.30
2019-06-20T16:53:21.785Z,1.00
2019-06-20T16:55:50.528Z,1.13
2019-06-20T16:58:19.311Z,1.20
2019-06-20T17:00:48.140Z,1.23
2019-06-20T17:03:16.933Z,1.00
2019-06-20T17:05:45.705Z,1.00
2019-06-20T17:08:14.470Z,1.20
2019-06-20T17:10:43.269Z,1.20
2019-06-20T17:13:12.019Z,1.10
2019-06-20T17:15:40.782Z,1.10
2019-06-20T17:18:09.942Z,1.10
2019-06-20T17:20:38.761Z,1.20
2019-06-20T17:23:07.607Z,1.00
2019-06-20T17:25:36.416Z,1.10
2019-06-20T17:28:05.172Z,1.00
2019-06-20T17:30:33.993Z,1.20
2019-06-20T17:33:02.810Z,1.03
2019-06-20T17:35:31.596Z,1.20
2019-06-20T17:38:00.420Z,1.07
2019-06-20T17:40:29.807Z,0.90
2019-06-20T17:42:58.588Z,1.00
2019-06-20T17:45:29.473Z,0.90
2019-06-20T17:47:58.235Z,1.20
2019-06-20T17:50:27.005Z,1.20
2019-06-20T17:52:55.799Z,1.10
2019-06-20T17:55:24.574Z,1.00
2019-06-20T17:57:53.485Z,1.07
2019-06-20T18:00:22.244Z,1.00
2019-06-20T18:02:51.023Z,1.00
2019-06-20T18:05:19.808Z,0.90
2019-06-20T18:07:48.636Z,1.30
2019-06-20T18:10:17.471Z,1.23
2019-06-20T18:12:46.234Z,1.40
2019-06-20T18:15:15.111Z,1.00
2019-06-20T18:17:43.979Z,1.30
2019-06-20T18:20:12.974Z,1.20
2019-06-20T18:22:41.800Z,1.03
2019-06-20T18:25:10.658Z,1.13
2019-06-20T18:27:39.408Z,1.20
2019-06-20T18:30:08.363Z,1.10
2019-06-20T18:32:37.218Z,1.20
2019-06-20T18:35:06.050Z,1.10
2019-06-20T18:37:34.873Z,1.10
2019-06-20T18:40:03.656Z,1.40
2019-06-20T18:42:32.520Z,1.33
2019-06-20T18:45:01.516Z,1.20
2019-06-20T18:47:30.377Z,1.20
2019-06-20T18:49:59.199Z,1.37
2019-06-20T18:52:28.096Z,1.20
2019-06-20T18:54:57.446Z,1.40
2019-06-20T18:57:26.234Z,1.33
2019-06-20T18:59:55.008Z,1.40
2019-06-20T19:02:23.856Z,1.40
2019-06-20T19:04:52.655Z,1.27
2019-06-20T19:07:21.508Z,1.20
2019-06-20T19:09:50.553Z,1.13
2019-06-20T19:12:19.482Z,1.37
2019-06-20T19:14:48.335Z,1.20
2019-06-20T19:17:17.257Z,1.20
2019-06-20T19:19:46.117Z,1.30
2019-06-20T19:22:14.908Z,1.30
2019-06-20T19:24:43.679Z,1.33
2019-06-20T19:27:12.458Z,1.40
2019-06-20T19:29:41.270Z,1.23
2019-06-20T19:32:10.145Z,1.30
2019-06-20T19:34:40.259Z,1.30
2019-06-20T19:37:09.052Z,1.20
2019-06-20T19:39:37.948Z,1.20
2019-06-20T19:42:06.835Z,1.20
2019-06-20T19:44:35.644Z,1.17
2019-06-20T19:47:04.510Z,1.27
2019-06-20T19:49:33.287Z,1.30
2019-06-20T19:52:02.204Z,1.20
2019-06-20T19:54:31.029Z,1.23
2019-06-20T19:56:59.880Z,1.30
2019-06-20T19:59:28.741Z,1.37
2019-06-20T20:01:57.577Z,1.30
2019-06-20T20:04:26.467Z,1.40
2019-06-20T20:06:55.333Z,1.40
2019-06-20T20:09:24.118Z,1.37
2019-06-20T20:11:52.957Z,1.20
2019-06-20T20:14:21.838Z,1.30
2019-06-20T20:16:50.817Z,1.17
2019-06-20T20:19:19.819Z,1.20
2019-06-20T20:21:48.762Z,1.30
2019-06-20T20:24:17.714Z,1.30
2019-06-20T20:26:46.579Z,1.30
2019-06-20T20:29:15.677Z,1.30
2019-06-20T20:31:44.640Z,1.30
2019-06-20T20:34:13.410Z,1.47
2019-06-20T20:36:42.325Z,1.30
2019-06-20T20:39:11.098Z,1.50
2019-06-20T20:41:39.873Z,1.10
2019-06-20T20:44:08.764Z,1.20
2019-06-20T20:46:37.555Z,1.50
2019-06-20T20:49:06.408Z,1.20
2019-06-20T20:51:35.168Z,1.47
2019-06-20T20:54:04.070Z,1.53
2019-06-20T20:56:32.923Z,1.53
2019-06-20T20:59:01.856Z,1.27
2019-06-20T21:01:31.022Z,1.20
2019-06-20T21:04:00.369Z,1.30
2019-06-20T21:06:29.644Z,1.40
2019-06-20T21:08:58.421Z,1.37
2019-06-20T21:11:27.256Z,1.47
2019-06-20T21:13:56.003Z,1.33
2019-06-20T21:16:24.799Z,1.30
2019-06-20T21:18:53.686Z,1.17
2019-06-20T21:21:22.468Z,1.20
2019-06-20T21:23:51.203Z,1.33
2019-06-20T21:26:20.037Z,1.40
2019-06-20T21:28:48.875Z,1.27
2019-06-20T21:31:17.701Z,1.40
2019-06-20T21:33:46.480Z,1.40
2019-06-20T21:36:15.230Z,1.20
2019-06-20T21:38:44.071Z,1.47
2019-06-20T21:41:12.994Z,1.43
2019-06-20T21:43:41.778Z,1.20
2019-06-20T21:46:10.625Z,1.10
2019-06-20T21:48:39.394Z,1.50
2019-06-20T21:51:08.242Z,1.23
2019-06-20T21:53:37.008Z,1.43
2019-06-20T21:56:05.908Z,1.40
2019-06-20T21:58:34.742Z,1.20
2019-06-20T22:01:04.255Z,1.50
2019-06-20T22:03:33.030Z,1.20
2019-06-20T22:06:01.823Z,1.60
2019-06-20T22:08:30.624Z,1.63
2019-06-20T22:10:59.378Z,1.30
2019-06-20T22:13:28.290Z,1.30
2019-06-20T22:15:57.055Z,1.20
2019-06-20T22:18:25.831Z,1.50
2019-06-20T22:20:54.597Z,1.43
2019-06-20T22:23:23.380Z,1.43
2019-06-20T22:25:52.138Z,1.30
2019-06-20T22:28:20.984Z,1.30
2019-06-20T22:30:52.140Z,1.20
2019-06-20T22:33:20.905Z,1.40
2019-06-20T22:35:49.683Z,1.60
2019-06-20T22:38:18.466Z,1.27
2019-06-20T22:40:48.414Z,1.23
2019-06-20T22:43:17.247Z,1.50
2019-06-20T22:45:46.084Z,1.23
2019-06-20T22:48:14.844Z,1.50
2019-06-20T22:50:43.651Z,1.33
2019-06-20T22:53:12.423Z,1.20
2019-06-20T22:55:41.179Z,1.30
2019-06-20T22:58:09.946Z,1.37
2019-06-20T23:00:38.689Z,1.40
2019-06-20T23:03:07.567Z,1.53
2019-06-20T23:05:36.392Z,1.20
2019-06-20T23:08:05.142Z,1.50
2019-06-20T23:10:34.007Z,1.27
2019-06-20T23:13:02.751Z,1.13
2019-06-20T23:15:31.550Z,1.30
2019-06-20T23:18:00.352Z,1.30
2019-06-20T23:20:29.096Z,1.50
2019-06-20T23:22:57.857Z,1.30
2019-06-20T23:25:26.626Z,1.30
2019-06-20T23:27:55.416Z,1.37
2019-06-20T23:30:24.156Z,1.30
2019-06-20T23:32:52.928Z,1.20
2019-06-20T23:35:21.675Z,1.33
2019-06-20T23:37:50.465Z,1.40
2019-06-20T23:40:21.175Z,1.30
2019-06-20T23:42:50.034Z,1.47
2019-06-20T23:45:19.010Z,1.30
2019-06-20T23:47:47.775Z,1.20
2019-06-20T23:50:19.760Z,1.40
2019-06-20T23:52:53.457Z,1.30
2019-06-20T23:55:22.268Z,1.30
2019-06-20T23:57:51.041Z,1.47
